createdAt,value
2023-03-13T00:00:41.800Z,5.85
2023-03-13T00:05:44.917Z,5.78
2023-03-13T00:10:47.973Z,5.67
2023-03-13T00:15:51.100Z,5.52
2023-03-13T00:21:01.899Z,5.31
2023-03-13T00:26:14.223Z,5.24
2023-03-13T00:31:29.627Z,5.56
2023-03-13T00:36:35.517Z,5.45
2023-03-13T00:41:38.783Z,5.30
2023-03-13T00:46:42.485Z,5.19
2023-03-13T00:51:45.573Z,5.31
2023-03-13T00:56:49.745Z,5.13
2023-03-13T01:01:53.579Z,4.98
2023-03-13T01:06:58.235Z,4.81
2023-03-13T01:12:01.535Z,4.63
2023-03-13T01:17:07.507Z,4.71
2023-03-13T01:22:12.884Z,4.78
2023-03-13T01:27:16.121Z,4.72
2023-03-13T01:32:19.429Z,4.66
2023-03-13T01:37:22.565Z,4.86
2023-03-13T01:42:26.060Z,4.95
2023-03-13T01:47:29.649Z,4.97
2023-03-13T01:52:49.740Z,4.92
2023-03-13T01:58:02.462Z,5.25
2023-03-13T02:03:11.504Z,5.16
2023-03-13T02:08:35.940Z,4.94
2023-03-13T02:13:39.368Z,5.24
2023-03-13T02:18:43.704Z,5.16
2023-03-13T02:24:37.186Z,5.22
2023-03-13T02:29:41.827Z,5.46
2023-03-13T02:34:50.319Z,5.73
2023-03-13T02:39:55.231Z,6.03
2023-03-13T02:44:58.701Z,6.19
2023-03-13T02:50:02.123Z,6.39
2023-03-13T02:55:15.881Z,6.57
2023-03-13T03:00:20.277Z,6.79
2023-03-13T03:05:23.798Z,6.91
2023-03-13T03:10:27.287Z,6.99
2023-03-13T03:15:30.467Z,7.16
2023-03-13T03:20:34.322Z,7.22
2023-03-13T03:25:37.444Z,7.28
2023-03-13T03:30:41.352Z,7.29
2023-03-13T03:35:44.437Z,7.24
2023-03-13T03:40:49.808Z,7.17
2023-03-13T03:45:54.098Z,6.98
2023-03-13T03:50:58.234Z,6.92
2023-03-13T03:56:02.469Z,6.67
2023-03-13T04:01:06.174Z,6.44
2023-03-13T04:06:10.333Z,6.30
2023-03-13T04:11:13.517Z,6.21
2023-03-13T04:16:22.535Z,6.18
2023-03-13T04:21:27.008Z,6.16
2023-03-13T04:26:37.026Z,5.99
2023-03-13T04:31:40.175Z,5.71
2023-03-13T04:36:57.788Z,5.37
2023-03-13T04:42:20.022Z,5.25
2023-03-13T04:47:43.321Z,5.29
2023-03-13T04:53:09.214Z,5.30
2023-03-13T04:58:30.856Z,5.28
2023-03-13T05:03:47.114Z,5.54
2023-03-13T05:09:06.580Z,5.62
2023-03-13T05:14:16.242Z,5.38
2023-03-13T05:19:42.416Z,5.20
2023-03-13T05:24:57.814Z,5.26
2023-03-13T05:30:27.621Z,5.45
2023-03-13T05:35:49.520Z,5.58
2023-03-13T05:41:15.849Z,5.47
2023-03-13T05:46:37.513Z,5.48
2023-03-13T05:52:03.548Z,5.63
2023-03-13T05:57:23.196Z,5.78
2023-03-13T06:02:40.961Z,6.04
2023-03-13T06:07:47.125Z,6.25
2023-03-13T06:12:55.952Z,6.70
2023-03-13T06:18:02.935Z,7.20
2023-03-13T06:23:06.392Z,7.61
2023-03-13T06:28:09.578Z,8.01
2023-03-13T06:33:12.717Z,11.02
2023-03-13T06:38:15.824Z,13.35
2023-03-13T06:43:20.054Z,15.30
2023-03-13T06:48:23.872Z,16.36
2023-03-13T06:53:26.933Z,13.14
2023-03-13T06:58:32.806Z,17.08
2023-03-13T07:03:36.916Z,17.60
2023-03-13T07:08:40.756Z,18.18
2023-03-13T07:13:44.454Z,17.34
2023-03-13T07:18:48.039Z,18.64
2023-03-13T07:23:51.873Z,18.39
2023-03-13T07:28:56.788Z,18.57
2023-03-13T07:34:03.003Z,18.86
2023-03-13T07:39:07.012Z,18.85
2023-03-13T07:44:10.625Z,17.95
2023-03-13T07:49:13.843Z,17.20
2023-03-13T07:54:17.904Z,16.40
2023-03-13T07:59:21.485Z,16.36
2023-03-13T08:04:24.883Z,16.75
2023-03-13T08:09:28.463Z,17.19
2023-03-13T08:14:31.608Z,17.38
2023-03-13T08:19:34.743Z,17.08
2023-03-13T08:24:38.295Z,17.20
2023-03-13T08:29:41.453Z,17.73
2023-03-13T08:34:45.620Z,17.72
2023-03-13T08:39:50.171Z,18.18
2023-03-13T08:44:54.199Z,18.09
2023-03-13T08:49:58.384Z,18.50
2023-03-13T08:55:01.627Z,17.97
2023-03-13T09:00:07.211Z,17.79
2023-03-13T09:05:10.364Z,17.58
2023-03-13T09:10:13.471Z,17.71
2023-03-13T09:15:17.120Z,18.11
2023-03-13T09:20:33.830Z,17.55
2023-03-13T09:25:39.848Z,17.39
2023-03-13T09:30:43.532Z,17.86
2023-03-13T09:35:53.484Z,17.26
2023-03-13T09:41:06.190Z,17.44
2023-03-13T09:46:34.267Z,17.73
2023-03-13T09:51:43.565Z,17.44
2023-03-13T09:57:00.721Z,18.49
2023-03-13T10:02:16.687Z,19.00
2023-03-13T10:07:21.624Z,19.00
2023-03-13T10:12:30.219Z,18.82
2023-03-13T10:17:39.421Z,18.69
2023-03-13T10:22:46.657Z,18.52
2023-03-13T10:27:51.269Z,18.80
2023-03-13T10:32:59.030Z,18.48
2023-03-13T10:38:11.393Z,18.66
2023-03-13T10:43:22.306Z,19.00
2023-03-13T10:48:30.356Z,19.28
2023-03-13T10:53:37.013Z,19.94
2023-03-13T10:58:50.283Z,20.30
2023-03-13T11:03:57.679Z,19.43
2023-03-13T11:09:18.490Z,19.58
2023-03-13T11:14:26.313Z,19.29
2023-03-13T11:19:53.534Z,19.22
2023-03-13T11:25:22.738Z,19.26
2023-03-13T11:30:46.312Z,19.22
2023-03-13T11:36:01.594Z,19.56
2023-03-13T11:41:21.557Z,19.34
2023-03-13T11:46:45.882Z,19.49
2023-03-13T11:52:02.444Z,19.27
2023-03-13T11:57:44.205Z,19.65
2023-03-13T12:02:58.226Z,19.81
2023-03-13T12:08:29.078Z,19.68
2023-03-13T12:13:56.600Z,20.15
2023-03-13T12:19:00.234Z,19.72
2023-03-13T12:24:28.065Z,20.82
2023-03-13T12:29:50.316Z,20.29
2023-03-13T12:35:08.079Z,20.17
2023-03-13T12:40:35.228Z,20.35
2023-03-13T12:46:09.909Z,21.09
2023-03-13T12:51:49.194Z,18.83
2023-03-13T12:57:17.991Z,18.40
2023-03-13T13:02:27.953Z,19.02
2023-03-13T13:07:35.266Z,18.26
2023-03-13T13:12:43.693Z,17.71
2023-03-13T13:18:07.103Z,16.78
2023-03-13T13:23:23.959Z,16.74
2023-03-13T13:28:35.235Z,16.50
2023-03-13T13:33:39.496Z,16.55
2023-03-13T13:38:43.223Z,18.46
2023-03-13T13:43:49.234Z,17.83
2023-03-13T13:49:08.179Z,17.48
2023-03-13T13:54:43.172Z,18.77
2023-03-13T13:59:51.972Z,19.03
2023-03-13T14:05:04.365Z,19.05
2023-03-13T14:10:32.680Z,20.06
2023-03-13T14:15:37.192Z,19.86
2023-03-13T14:20:53.789Z,18.48
2023-03-13T14:25:57.475Z,19.51
2023-03-13T14:31:00.651Z,19.51
2023-03-13T14:36:04.697Z,19.71
2023-03-13T14:41:24.072Z,19.25
2023-03-13T14:46:33.597Z,18.96
2023-03-13T14:51:40.691Z,19.47
2023-03-13T14:56:45.448Z,19.09
2023-03-13T15:02:19.101Z,19.71
2023-03-13T15:07:23.216Z,18.97
2023-03-13T15:12:26.358Z,18.59
2023-03-13T15:17:30.236Z,18.04
2023-03-13T15:22:39.589Z,17.24
2023-03-13T15:27:42.676Z,17.33
2023-03-13T15:32:47.257Z,16.35
2023-03-13T15:37:50.772Z,16.07
2023-03-13T15:42:55.820Z,17.17
2023-03-13T15:48:00.999Z,17.14
2023-03-13T15:53:20.163Z,16.52
2023-03-13T15:58:24.953Z,16.08
2023-03-13T16:03:29.183Z,15.76
2023-03-13T16:08:36.453Z,15.80
2023-03-13T16:13:40.922Z,15.75
2023-03-13T16:18:44.020Z,15.53
2023-03-13T16:23:47.297Z,14.93
2023-03-13T16:28:51.270Z,14.49
2023-03-13T16:33:55.605Z,13.83
2023-03-13T16:39:05.771Z,13.27
2023-03-13T16:44:09.648Z,12.86
2023-03-13T16:49:16.157Z,12.29
2023-03-13T16:54:19.802Z,11.81
2023-03-13T16:59:24.562Z,11.47
2023-03-13T17:04:28.784Z,11.27
2023-03-13T17:09:32.345Z,10.83
2023-03-13T17:14:35.849Z,10.51
2023-03-13T17:19:38.918Z,10.23
2023-03-13T17:24:42.850Z,10.25
2023-03-13T17:29:46.028Z,10.09
2023-03-13T17:34:49.641Z,9.78
2023-03-13T17:39:52.750Z,9.68
2023-03-13T17:44:56.807Z,9.46
2023-03-13T17:50:00.815Z,9.30
2023-03-13T17:55:05.297Z,9.13
2023-03-13T18:00:45.419Z,9.04
2023-03-13T18:05:49.465Z,8.87
2023-03-13T18:10:54.126Z,8.74
2023-03-13T18:15:57.989Z,8.67
2023-03-13T18:21:02.406Z,8.86
2023-03-13T18:26:18.178Z,9.12
2023-03-13T18:31:22.701Z,9.33
2023-03-13T18:36:27.849Z,9.36
2023-03-13T18:41:32.056Z,9.42
2023-03-13T18:46:35.663Z,9.43
2023-03-13T18:51:39.374Z,9.49
2023-03-13T18:56:45.546Z,9.50
2023-03-13T19:01:49.609Z,9.52
2023-03-13T19:06:53.543Z,9.55
2023-03-13T19:11:57.115Z,9.52
2023-03-13T19:17:00.189Z,9.44
2023-03-13T19:22:04.291Z,9.43
2023-03-13T19:27:08.000Z,9.20
2023-03-13T19:32:20.046Z,9.23
2023-03-13T19:37:23.725Z,9.27
2023-03-13T19:42:28.778Z,9.27
2023-03-13T19:47:31.950Z,9.19
2023-03-13T19:52:36.133Z,9.24
2023-03-13T19:57:40.144Z,9.13
2023-03-13T20:02:44.324Z,9.00
2023-03-13T20:07:49.094Z,8.99
2023-03-13T20:12:53.917Z,8.92
2023-03-13T20:17:56.955Z,8.97
2023-03-13T20:23:00.062Z,8.93
2023-03-13T20:28:03.848Z,8.94
2023-03-13T20:33:07.523Z,8.75
2023-03-13T20:38:11.176Z,8.59
2023-03-13T20:43:15.302Z,8.38
2023-03-13T20:48:19.631Z,8.10
2023-03-13T20:53:24.425Z,7.80
2023-03-13T20:58:27.919Z,7.77
2023-03-13T21:03:36.141Z,7.78
2023-03-13T21:08:39.844Z,7.71
2023-03-13T21:13:43.538Z,7.43
2023-03-13T21:18:47.606Z,7.37
2023-03-13T21:23:52.392Z,7.34
2023-03-13T21:28:55.828Z,7.23
2023-03-13T21:33:59.506Z,7.18
2023-03-13T21:39:03.100Z,7.31
2023-03-13T21:44:08.188Z,7.26
2023-03-13T21:49:12.436Z,7.28
2023-03-13T21:54:16.037Z,7.40
2023-03-13T21:59:22.100Z,7.74
2023-03-13T22:04:25.920Z,7.76
2023-03-13T22:09:29.375Z,7.62
2023-03-13T22:14:32.868Z,7.44
2023-03-13T22:19:36.861Z,7.26
2023-03-13T22:24:40.996Z,7.21
2023-03-13T22:29:44.274Z,7.35
2023-03-13T22:34:48.409Z,7.33
2023-03-13T22:39:54.135Z,7.16
2023-03-13T22:44:57.682Z,7.19
2023-03-13T22:50:00.745Z,7.17
2023-03-13T22:55:04.752Z,7.29
2023-03-13T23:00:09.393Z,7.22
2023-03-13T23:05:12.501Z,6.99
2023-03-13T23:10:16.636Z,6.73
2023-03-13T23:15:20.273Z,6.50
2023-03-13T23:20:23.755Z,6.19
2023-03-13T23:25:27.462Z,5.91
2023-03-13T23:30:30.515Z,5.63
2023-03-13T23:35:37.377Z,5.35
2023-03-13T23:40:41.280Z,5.26
2023-03-13T23:45:45.149Z,5.16
2023-03-13T23:50:48.275Z,5.06
2023-03-13T23:55:59.018Z,5.03
